Time;durP1;ratioP1;P1;durP2;ratioP2;P2;SDS_P1;SDS_P2;PMS_P1;PMS_P2;Temp;Humidity;BMP_temperature;BMP_pressure;BME280_temperature;BME280_humidity;BME280_pressure;Samples;Min_cycle;Max_cycle;Signal;HPM_P1;HPM_P2
2022/09/16 00:00:20;;;;;;;0.30;0.30;;;;;;;16.03;100.00;98240.17;1683919;83;21473;-47
2022/09/16 00:02:47;;;;;;;0.30;0.30;;;;;;;16.00;100.00;98239.59;1686025;84;21131;-48
2022/09/16 00:05:13;;;;;;;0.30;0.30;;;;;;;15.97;100.00;98237.19;1685330;84;21652;-48
2022/09/16 00:07:40;;;;;;;0.72;0.30;;;;;;;15.93;100.00;98227.11;1708481;83;21062;-46
2022/09/16 00:10:07;;;;;;;0.40;0.33;;;;;;;15.92;100.00;98226.75;1683773;84;21165;-48
2022/09/16 00:12:33;;;;;;;0.25;0.25;;;;;;;15.91;100.00;98225.56;1687367;83;21529;-47
2022/09/16 00:15:00;;;;;;;0.70;0.30;;;;;;;15.88;100.00;98227.56;1687441;83;21105;-48
2022/09/16 00:17:28;;;;;;;0.30;0.30;;;;;;;15.88;100.00;98213.99;1703676;82;21069;-47
2022/09/16 00:19:56;;;;;;;1.05;0.40;;;;;;;15.87;100.00;98218.20;1683467;84;21109;-45
2022/09/16 00:22:23;;;;;;;0.30;0.30;;;;;;;15.86;100.00;98216.48;1683912;83;21234;-47
2022/09/16 00:24:50;;;;;;;0.30;0.30;;;;;;;15.86;100.00;98217.84;1704023;82;21053;-48
2022/09/16 00:27:16;;;;;;;0.30;0.30;;;;;;;15.85;100.00;98215.63;1703776;82;21070;-49
2022/09/16 00:29:42;;;;;;;0.30;0.30;;;;;;;15.85;100.00;98208.84;1674508;83;21056;-50
2022/09/16 00:32:09;;;;;;;0.28;0.28;;;;;;;15.85;100.00;98208.84;1705866;82;21073;-48
2022/09/16 00:34:35;;;;;;;1.20;0.40;;;;;;;15.85;100.00;98222.91;1708350;82;21569;-50
2022/09/16 00:37:07;;;;;;;0.33;0.30;;;;;;;15.85;100.00;98225.63;1705484;82;21124;-46
2022/09/16 00:39:34;;;;;;;0.40;0.40;;;;;;;15.83;100.00;98232.55;1673029;83;21528;-50
2022/09/16 00:42:02;;;;;;;1.65;0.40;;;;;;;15.84;100.00;98222.55;1662298;84;21058;-47
2022/09/16 00:45:01;;;;;;;0.30;0.30;;;;;;;15.84;100.00;98229.33;1665710;84;21698;-48
2022/09/16 00:47:38;;;;;;;0.70;0.30;;;;;;;15.82;100.00;98240.32;1671037;83;21380;-50
2022/09/16 00:50:16;;;;;;;2.05;0.40;;;;;;;15.82;100.00;98243.03;1663769;84;21520;-47
2022/09/16 00:52:43;;;;;;;0.35;0.30;;;;;;;15.81;100.00;98240.48;1661416;84;21737;-47
2022/09/16 00:55:13;;;;;;;0.55;0.40;;;;;;;15.79;100.00;98245.19;1646512;85;21072;-47
2022/09/16 00:57:39;;;;;;;3.05;0.40;;;;;;;15.77;100.00;98261.61;1647981;85;21121;-49
2022/09/16 01:00:10;;;;;;;0.85;0.50;;;;;;;15.76;100.00;98259.89;1673639;84;22151;-47
2022/09/16 01:02:35;;;;;;;0.60;0.40;;;;;;;15.75;100.00;98260.89;1674333;83;21996;-48
2022/09/16 01:05:07;;;;;;;0.40;0.40;;;;;;;15.75;100.00;98261.38;1680422;83;20942;-49
2022/09/16 01:07:48;;;;;;;0.82;0.50;;;;;;;15.75;100.00;98264.09;1678766;83;21388;-47
2022/09/16 01:10:21;;;;;;;0.60;0.40;;;;;;;15.74;100.00;98261.88;1668385;84;21064;-46
2022/09/16 01:13:01;;;;;;;3.22;0.40;;;;;;;15.73;100.00;98260.20;1646846;85;21797;-49
2022/09/16 01:15:57;;;;;;;1.98;0.40;;;;;;;15.72;100.00;98263.05;1648232;85;21004;-46
2022/09/16 01:18:41;;;;;;;2.98;0.50;;;;;;;15.70;100.00;98265.03;1648963;85;21127;-47
2022/09/16 01:21:39;;;;;;;1.12;0.50;;;;;;;15.67;100.00;98253.96;1648439;85;20899;-49
2022/09/16 01:24:45;;;;;;;0.50;0.40;;;;;;;15.64;100.00;98256.98;1647644;85;21056;-46
2022/09/16 01:27:57;;;;;;;0.50;0.40;;;;;;;15.63;100.00;98259.83;1676317;84;21155;-48
2022/09/16 01:30:43;;;;;;;2.25;0.55;;;;;;;15.61;100.00;98264.03;1648484;85;20899;-50
2022/09/16 01:33:34;;;;;;;0.60;0.50;;;;;;;15.61;100.00;98263.17;1648144;85;20903;-49
2022/09/16 01:36:11;;;;;;;0.45;0.45;;;;;;;15.59;100.00;98263.31;1663993;84;20938;-49
2022/09/16 01:39:07;;;;;;;0.62;0.60;;;;;;;15.58;100.00;98273.80;1637847;83;20930;-49
2022/09/16 01:41:52;;;;;;;0.50;0.50;;;;;;;15.56;100.00;98278.53;1693482;83;21250;-49
2022/09/16 01:44:54;;;;;;;3.12;0.50;;;;;;;15.54;100.00;98286.44;1693567;83;21069;-50
2022/09/16 01:47:53;;;;;;;0.50;0.50;;;;;;;15.51;100.00;98281.61;1690698;83;21919;-49
2022/09/16 01:50:47;;;;;;;2.47;0.60;;;;;;;15.47;100.00;98273.91;1693007;83;21546;-49
2022/09/16 01:53:40;;;;;;;0.60;0.50;;;;;;;15.43;100.00;98271.96;1694948;83;21052;-49
2022/09/16 01:56:15;;;;;;;0.50;0.50;;;;;;;15.42;100.00;98287.01;1692128;83;21126;-49
2022/09/16 01:58:50;;;;;;;0.65;0.50;;;;;;;15.42;100.00;98276.16;1693181;83;28126;-49
2022/09/16 02:01:39;;;;;;;2.50;0.55;;;;;;;15.41;100.00;98273.09;1695489;83;21495;-49
2022/09/16 02:04:21;;;;;;;0.60;0.60;;;;;;;15.37;100.00;98272.53;1705675;82;21544;-49
2022/09/16 02:06:47;;;;;;;2.87;0.57;;;;;;;15.34;100.00;98276.01;1683791;84;21210;-49
2022/09/16 02:09:22;;;;;;;0.57;0.57;;;;;;;15.31;100.00;98277.13;1681027;83;21221;-50
2022/09/16 02:11:49;;;;;;;1.12;0.80;;;;;;;15.29;100.00;98270.16;1687217;83;21545;-49
2022/09/16 02:14:20;;;;;;;0.62;0.62;;;;;;;15.24;100.00;98269.70;1685310;84;21421;-49
2022/09/16 02:17:00;;;;;;;1.20;0.60;;;;;;;15.20;100.00;98261.50;1684048;83;20993;-49
2022/09/16 02:19:32;;;;;;;2.33;0.70;;;;;;;15.16;100.00;98270.39;1704746;82;21085;-50
2022/09/16 02:21:58;;;;;;;2.00;0.70;;;;;;;15.11;100.00;98269.47;1677602;83;21129;-49
2022/09/16 02:24:24;;;;;;;0.60;0.60;;;;;;;15.07;100.00;98282.92;1682479;84;21113;-49
2022/09/16 02:26:56;;;;;;;0.60;0.60;;;;;;;15.06;100.00;98281.70;1702679;83;21085;-50
2022/09/16 02:29:25;;;;;;;3.90;0.80;;;;;;;15.04;100.00;98278.30;1686108;83;20958;-49
2022/09/16 02:31:54;;;;;;;1.15;0.90;;;;;;;15.05;100.00;98275.95;1687023;83;21585;-50
2022/09/16 02:34:31;;;;;;;0.65;0.60;;;;;;;15.06;100.00;98283.05;1707935;82;20990;-49
2022/09/16 02:37:02;;;;;;;2.17;0.62;;;;;;;15.07;100.00;98278.86;1710137;82;21131;-50
2022/09/16 02:39:30;;;;;;;1.55;0.70;;;;;;;15.09;100.00;98278.23;1663113;84;21532;-49
2022/09/16 02:41:57;;;;;;;2.25;0.80;;;;;;;15.10;100.00;98287.22;1657036;84;21136;-50
2022/09/16 02:44:24;;;;;;;1.85;0.70;;;;;;;15.13;100.00;98285.10;1653457;85;21088;-50
2022/09/16 02:47:10;;;;;;;1.00;0.70;;;;;;;15.12;100.00;98277.11;1658581;84;22437;-50
2022/09/16 02:49:49;;;;;;;1.52;0.70;;;;;;;15.13;100.00;98273.41;1653820;85;21567;-50
2022/09/16 02:52:41;;;;;;;0.60;0.60;;;;;;;15.11;100.00;98268.12;1677213;83;21609;-50
2022/09/16 02:55:38;;;;;;;0.70;0.70;;;;;;;15.14;100.00;98266.99;1676227;83;21081;-50
2022/09/16 02:58:05;;;;;;;0.70;0.70;;;;;;;15.13;100.00;98262.56;1675753;83;21078;-50
2022/09/16 03:00:38;;;;;;;0.80;0.70;;;;;;;15.13;100.00;98275.62;1649934;85;21046;-50
2022/09/16 03:03:04;;;;;;;0.70;0.70;;;;;;;15.13;100.00;98281.53;1632247;85;21103;-50
2022/09/16 03:05:31;;;;;;;0.62;0.62;;;;;;;15.12;100.00;98282.03;1677618;84;21050;-50
2022/09/16 03:08:02;;;;;;;1.70;0.70;;;;;;;15.13;100.00;98281.04;1676776;83;21104;-50
2022/09/16 03:10:30;;;;;;;0.70;0.70;;;;;;;15.13;100.00;98286.45;1649640;85;21101;-50
2022/09/16 03:13:11;;;;;;;0.85;0.70;;;;;;;15.14;100.00;98296.27;1649411;85;21198;-50
2022/09/16 03:15:49;;;;;;;1.17;0.65;;;;;;;15.15;100.00;98299.34;1650782;85;21103;-50
2022/09/16 03:18:38;;;;;;;0.70;0.70;;;;;;;15.16;100.00;98292.08;1682088;84;21185;-50
2022/09/16 03:21:13;;;;;;;0.80;0.65;;;;;;;15.13;100.00;98289.17;1672866;83;21070;-50
2022/09/16 03:24:06;;;;;;;0.70;0.60;;;;;;;15.13;100.00;98291.88;1675172;83;21046;-50
2022/09/16 03:26:59;;;;;;;2.37;0.70;;;;;;;15.09;100.00;98289.07;1649123;85;21209;-51
2022/09/16 03:29:39;;;;;;;0.80;0.70;;;;;;;15.08;100.00;98281.07;1671013;83;21220;-51
2022/09/16 03:32:22;;;;;;;0.70;0.70;;;;;;;15.05;100.00;98280.88;1663713;84;21194;-50
2022/09/16 03:35:05;;;;;;;1.32;0.70;;;;;;;15.01;100.00;98279.41;1666326;84;21048;-50
2022/09/16 03:37:34;;;;;;;0.70;0.70;;;;;;;15.00;100.00;98269.56;1643027;85;21112;-51
2022/09/16 03:40:11;;;;;;;1.25;0.68;;;;;;;15.03;100.00;98284.20;1700623;82;21516;-50
2022/09/16 03:42:39;;;;;;;1.00;0.70;;;;;;;15.01;100.00;98281.27;1684487;83;21065;-50
2022/09/16 03:45:07;;;;;;;2.83;0.62;;;;;;;14.98;100.00;98290.52;1709878;82;21129;-50
2022/09/16 03:47:34;;;;;;;3.52;0.80;;;;;;;14.98;100.00;98296.43;1706560;83;21113;-50
2022/09/16 03:50:02;;;;;;;0.75;0.70;;;;;;;14.96;100.00;98296.59;1684696;84;21068;-50
2022/09/16 03:52:29;;;;;;;0.98;0.70;;;;;;;14.94;100.00;98305.34;1708209;83;21148;-51
2022/09/16 03:54:55;;;;;;;1.00;0.62;;;;;;;14.93;100.00;98302.77;1707039;83;21555;-50
2022/09/16 03:57:22;;;;;;;0.62;0.60;;;;;;;14.92;100.00;98295.14;1701286;82;21086;-51
2022/09/16 03:59:48;;;;;;;0.93;0.60;;;;;;;14.93;100.00;98294.64;1708574;82;21046;-50
2022/09/16 04:02:15;;;;;;;0.78;0.78;;;;;;;14.93;100.00;98301.41;1708822;82;21148;-50
2022/09/16 04:04:41;;;;;;;1.22;0.72;;;;;;;14.91;100.00;98300.19;1684043;83;21136;-50
2022/09/16 04:07:08;;;;;;;0.72;0.72;;;;;;;14.90;100.00;98301.18;1686599;84;20983;-50
2022/09/16 04:09:36;;;;;;;3.80;0.80;;;;;;;14.89;100.00;98304.02;1685200;84;20946;-49
2022/09/16 04:12:04;;;;;;;0.70;0.70;;;;;;;14.88;100.00;98299.13;1707650;82;20967;-50
2022/09/16 04:14:30;;;;;;;2.10;0.95;;;;;;;14.90;100.00;98301.67;1684527;84;21086;-50
2022/09/16 04:16:57;;;;;;;1.02;0.93;;;;;;;14.91;100.00;98313.73;1682151;84;21236;-50
2022/09/16 04:19:24;;;;;;;1.57;1.20;;;;;;;14.91;100.00;98328.64;1687451;84;21124;-50
2022/09/16 04:21:50;;;;;;;2.72;1.60;;;;;;;14.92;100.00;98317.30;1680928;84;21448;-50
2022/09/16 04:24:16;;;;;;;1.45;1.35;;;;;;;14.92;100.00;98308.69;1680271;84;21074;-51
2022/09/16 04:26:43;;;;;;;7.12;1.98;;;;;;;14.91;100.00;98306.10;1697974;82;21071;-50
2022/09/16 04:29:09;;;;;;;2.10;1.87;;;;;;;14.90;100.00;98307.09;1699719;83;21638;-50
2022/09/16 04:31:36;;;;;;;4.10;1.92;;;;;;;14.90;100.00;98304.38;1685714;84;21109;-50
2022/09/16 04:34:03;;;;;;;2.37;1.40;;;;;;;14.90;100.00;98312.51;1684463;84;21077;-50
2022/09/16 04:36:29;;;;;;;2.50;1.57;;;;;;;14.91;100.00;98314.23;1701184;83;20948;-50
2022/09/16 04:38:56;;;;;;;2.95;1.32;;;;;;;14.90;100.00;98304.38;1712456;83;20942;-49
2022/09/16 04:41:24;;;;;;;6.78;1.35;;;;;;;14.93;100.00;98307.69;1702913;82;21104;-49
2022/09/16 04:43:54;;;;;;;6.12;0.90;;;;;;;14.94;100.00;98306.70;1707769;82;21062;-49
2022/09/16 04:46:21;;;;;;;1.12;0.80;;;;;;;14.95;100.00;98310.27;1707128;82;21080;-49
2022/09/16 04:48:49;;;;;;;1.37;0.90;;;;;;;14.96;100.00;98328.25;1738851;81;21142;-49
2022/09/16 04:51:15;;;;;;;4.42;1.00;;;;;;;14.95;100.00;98331.45;1739912;81;21076;-50
2022/09/16 04:53:43;;;;;;;0.80;0.72;;;;;;;14.94;100.00;98332.44;1741569;81;21211;-50
2022/09/16 04:56:16;;;;;;;0.80;0.70;;;;;;;14.95;100.00;98342.78;1741067;81;21039;-50
2022/09/16 04:58:48;;;;;;;0.68;0.68;;;;;;;14.94;100.00;98351.41;1744514;80;21041;-50
2022/09/16 05:01:16;;;;;;;1.10;0.90;;;;;;;14.93;100.00;98352.39;1736593;81;21062;-50
2022/09/16 05:03:46;;;;;;;0.80;0.72;;;;;;;14.94;100.00;98352.77;1735100;81;21071;-50
2022/09/16 05:06:15;;;;;;;3.08;0.80;;;;;;;14.93;100.00;98348.33;1697479;82;21170;-50
2022/09/16 05:08:42;;;;;;;4.17;0.80;;;;;;;14.92;100.00;98346.61;1680221;84;21093;-49
2022/09/16 05:11:18;;;;;;;2.75;0.80;;;;;;;14.94;100.00;98350.55;1738866;81;21078;-49
2022/09/16 05:13:44;;;;;;;0.80;0.80;;;;;;;14.94;100.00;98347.34;1737039;81;21044;-49
2022/09/16 05:16:19;;;;;;;0.90;0.72;;;;;;;14.96;100.00;98352.14;1737855;81;22302;-50
2022/09/16 05:18:46;;;;;;;1.00;0.70;;;;;;;14.98;100.00;98350.62;1734745;80;21218;-50
2022/09/16 05:21:15;;;;;;;2.45;0.80;;;;;;;14.98;100.00;98357.39;1735637;80;21155;-50
2022/09/16 05:23:41;;;;;;;0.70;0.70;;;;;;;14.97;100.00;98361.13;1737382;81;21029;-50
2022/09/16 05:26:14;;;;;;;2.27;0.80;;;;;;;14.97;100.00;98357.06;1738917;80;21114;-49
2022/09/16 05:28:40;;;;;;;0.85;0.75;;;;;;;14.99;100.00;98367.24;1736891;81;21595;-49
2022/09/16 05:31:22;;;;;;;1.17;0.88;;;;;;;15.01;100.00;98370.69;1737954;80;21137;-49
2022/09/16 05:33:59;;;;;;;0.80;0.78;;;;;;;15.02;100.00;98366.98;1738857;80;21609;-50
2022/09/16 05:36:29;;;;;;;2.10;0.98;;;;;;;15.05;100.00;98363.52;1738145;80;21044;-50
2022/09/16 05:38:55;;;;;;;2.60;0.80;;;;;;;15.06;100.00;98367.92;1738696;80;21444;-49
2022/09/16 05:41:22;;;;;;;0.90;0.80;;;;;;;15.08;100.00;98366.44;1717915;81;21083;-50
2022/09/16 05:43:49;;;;;;;1.17;1.07;;;;;;;15.07;100.00;98370.99;1722880;81;21068;-50
2022/09/16 05:46:21;;;;;;;1.32;0.90;;;;;;;15.09;100.00;98370.37;1716417;81;21032;-50
2022/09/16 05:48:48;;;;;;;0.90;0.80;;;;;;;15.08;100.00;98361.87;1716932;81;21099;-49
2022/09/16 05:51:17;;;;;;;1.15;1.05;;;;;;;15.09;100.00;98360.88;1716146;81;21607;-49
2022/09/16 05:53:46;;;;;;;2.65;1.10;;;;;;;15.11;100.00;98360.75;1714232;81;21181;-49
2022/09/16 05:56:16;;;;;;;1.00;0.90;;;;;;;15.13;100.00;98360.98;1719520;81;21209;-50
2022/09/16 05:58:42;;;;;;;1.30;0.95;;;;;;;15.15;100.00;98367.11;1716747;81;21029;-50
2022/09/16 06:01:14;;;;;;;1.32;0.82;;;;;;;15.20;100.00;98373.49;1684198;83;21088;-50
2022/09/16 06:03:42;;;;;;;1.10;1.00;;;;;;;15.24;100.00;98371.34;1683472;83;20938;-50
2022/09/16 06:06:28;;;;;;;2.55;0.90;;;;;;;15.28;100.00;98360.61;1681314;83;21183;-50
2022/09/16 06:08:58;;;;;;;1.07;0.98;;;;;;;15.31;100.00;98372.55;1684255;83;22268;-49
2022/09/16 06:11:25;;;;;;;2.42;1.00;;;;;;;15.32;100.00;98368.81;1653048;84;21060;-49
2022/09/16 06:13:56;;;;;;;1.10;1.00;;;;;;;15.34;100.00;98366.33;1683967;83;21066;-50
2022/09/16 06:16:26;;;;;;;1.47;1.10;;;;;;;15.38;100.00;98372.35;1681585;83;21126;-50
2022/09/16 06:18:54;;;;;;;1.45;1.35;;;;;;;15.39;100.00;98373.58;1685503;83;21184;-49
2022/09/16 06:21:21;;;;;;;3.27;1.07;;;;;;;15.41;100.00;98373.41;1663460;84;21267;-49
2022/09/16 06:23:48;;;;;;;1.50;1.02;;;;;;;15.43;100.00;98378.20;1684768;83;21091;-48
2022/09/16 06:26:18;;;;;;;3.17;1.20;;;;;;;15.44;100.00;98380.78;1684357;83;21105;-49
2022/09/16 06:28:45;;;;;;;2.08;1.35;;;;;;;15.47;100.00;98383.73;1659914;84;21098;-50
2022/09/16 06:31:21;;;;;;;2.58;1.30;;;;;;;15.49;100.00;98381.22;1660234;84;21141;-49
2022/09/16 06:33:51;;;;;;;2.02;1.55;;;;;;;15.52;100.00;98377.38;1660584;84;21651;-50
2022/09/16 06:36:24;;;;;;;1.20;1.10;;;;;;;15.58;100.00;98382.77;1682112;83;21113;-49
2022/09/16 06:38:50;;;;;;;2.20;1.40;;;;;;;15.62;100.00;98383.73;1664457;84;21172;-49
2022/09/16 06:41:18;;;;;;;1.57;1.27;;;;;;;15.68;100.00;98385.87;1699611;82;21010;-49
2022/09/16 06:43:44;;;;;;;2.12;1.20;;;;;;;15.73;100.00;98385.48;1704466;82;21061;-48
2022/09/16 06:46:16;;;;;;;1.57;1.35;;;;;;;15.77;100.00;98389.12;1705828;82;21185;-49
2022/09/16 06:48:46;;;;;;;1.40;1.30;;;;;;;15.84;100.00;98385.34;1736405;81;21363;-49
2022/09/16 06:51:15;;;;;;;1.12;1.05;;;;;;;15.89;100.00;98394.80;1733854;81;21057;-49
2022/09/16 06:53:42;;;;;;;2.08;1.30;;;;;;;15.95;100.00;98400.65;1736261;80;21524;-49
2022/09/16 06:56:13;;;;;;;1.65;1.22;;;;;;;15.98;100.00;98397.66;1740302;81;21105;-49
2022/09/16 06:58:41;;;;;;;1.45;1.30;;;;;;;16.03;100.00;98401.66;1738559;80;21152;-49
2022/09/16 07:01:10;;;;;;;1.70;1.57;;;;;;;16.08;100.00;98408.87;1702579;82;21172;-49
2022/09/16 07:03:39;;;;;;;2.87;1.40;;;;;;;16.11;100.00;98403.67;1683103;83;21039;-50
2022/09/16 07:06:05;;;;;;;1.62;1.52;;;;;;;16.13;100.00;98409.82;1738567;80;21489;-49
2022/09/16 07:08:33;;;;;;;5.03;1.47;;;;;;;16.12;100.00;98417.11;1738780;81;21038;-49
2022/09/16 07:11:06;;;;;;;1.50;1.40;;;;;;;16.15;100.00;98424.13;1745670;80;21088;-49
2022/09/16 07:13:33;;;;;;;1.70;1.60;;;;;;;16.17;100.00;98419.38;1743686;80;20949;-50
2022/09/16 07:16:01;;;;;;;2.45;1.30;;;;;;;16.21;100.00;98428.97;1708006;82;21350;-49
2022/09/16 07:18:29;;;;;;;1.65;1.22;;;;;;;16.25;100.00;98430.39;1746219;80;21081;-49
2022/09/16 07:21:05;;;;;;;1.70;1.27;;;;;;;16.33;100.00;98427.86;1739199;80;21382;-49
2022/09/16 07:23:32;;;;;;;1.62;1.52;;;;;;;16.39;100.00;98431.84;1746898;80;21267;-50
2022/09/16 07:26:17;;;;;;;1.82;1.30;;;;;;;16.44;100.00;98432.27;1743181;80;21071;-50
2022/09/16 07:28:45;;;;;;;1.25;1.15;;;;;;;16.51;100.00;98434.27;1739901;80;25619;-50
2022/09/16 07:31:15;;;;;;;3.37;1.25;;;;;;;16.58;100.00;98431.36;1740322;80;20958;-49
2022/09/16 07:33:45;;;;;;;3.50;1.30;;;;;;;16.65;100.00;98428.95;1740287;81;21047;-50
2022/09/16 07:36:13;;;;;;;1.25;1.15;;;;;;;16.75;100.00;98430.31;1738387;80;21411;-50
2022/09/16 07:38:40;;;;;;;1.98;1.02;;;;;;;16.84;100.00;98427.55;1735502;80;21096;-50
2022/09/16 07:41:10;;;;;;;2.33;1.15;;;;;;;16.91;100.00;98427.85;1741242;80;21012;-50
2022/09/16 07:43:39;;;;;;;1.05;0.95;;;;;;;16.94;100.00;98426.18;1744762;80;21133;-50
2022/09/16 07:46:05;;;;;;;2.05;1.55;;;;;;;17.00;100.00;98425.13;1743701;80;21156;-50
2022/09/16 07:48:32;;;;;;;2.17;1.10;;;;;;;17.06;100.00;98426.38;1743192;80;21903;-50
2022/09/16 07:51:04;;;;;;;1.22;1.00;;;;;;;17.12;100.00;98439.88;1741135;80;21093;-50
2022/09/16 07:53:31;;;;;;;1.07;0.98;;;;;;;17.18;100.00;98433.88;1744973;80;21011;-50
2022/09/16 07:56:09;;;;;;;3.00;0.93;;;;;;;17.21;100.00;98439.00;1707521;82;21416;-49
2022/09/16 07:58:37;;;;;;;3.15;0.90;;;;;;;17.25;100.00;98440.44;1679336;83;21017;-49
2022/09/16 08:01:06;;;;;;;1.20;0.95;;;;;;;17.27;100.00;98432.46;1683236;84;21220;-49
2022/09/16 08:03:34;;;;;;;0.80;0.80;;;;;;;17.31;100.00;98433.89;1682784;83;21109;-49
2022/09/16 08:06:05;;;;;;;2.10;0.88;;;;;;;17.35;100.00;98434.47;1683755;84;21157;-49
2022/09/16 08:08:33;;;;;;;1.00;0.85;;;;;;;17.42;100.00;98433.37;1705061;82;21098;-50
2022/09/16 08:11:00;;;;;;;1.17;0.80;;;;;;;17.47;100.00;98418.80;1683149;84;21167;-49
2022/09/16 08:13:28;;;;;;;1.55;0.88;;;;;;;17.54;100.00;98432.16;1680775;84;21084;-50
2022/09/16 08:15:55;;;;;;;1.00;0.90;;;;;;;17.61;100.00;98427.83;1678571;83;21134;-50
2022/09/16 08:18:21;;;;;;;0.70;0.70;;;;;;;17.71;100.00;98424.09;1686661;83;21125;-50
2022/09/16 08:20:47;;;;;;;0.90;0.80;;;;;;;17.84;100.00;98419.67;1712289;82;21042;-50
2022/09/16 08:23:14;;;;;;;1.55;0.80;;;;;;;17.96;100.00;98425.24;1709615;82;21065;-50
2022/09/16 08:25:41;;;;;;;1.35;1.07;;;;;;;18.05;100.00;98418.02;1687490;83;21837;-50
2022/09/16 08:28:15;;;;;;;2.77;0.88;;;;;;;18.15;100.00;98412.02;1709035;82;21086;-50
2022/09/16 08:30:42;;;;;;;8.20;2.87;;;;;;;18.29;100.00;98410.64;1694433;84;21571;-51
2022/09/16 08:33:08;;;;;;;1.77;0.80;;;;;;;18.35;100.00;98413.59;1693793;83;21128;-51
2022/09/16 08:35:35;;;;;;;1.32;0.75;;;;;;;18.44;100.00;98419.48;1695423;83;21104;-51
2022/09/16 08:38:02;;;;;;;0.90;0.80;;;;;;;18.53;100.00;98415.83;1694277;83;21161;-50
2022/09/16 08:40:34;;;;;;;1.55;1.02;;;;;;;18.65;100.00;98412.87;1693797;84;21088;-51
2022/09/16 08:43:18;;;;;;;0.70;0.60;;;;;;;18.74;100.00;98408.70;1664935;83;21072;-50
2022/09/16 08:46:16;;;;;;;1.25;0.80;;;;;;;18.81;100.00;98411.64;1691867;83;21056;-51
2022/09/16 08:48:53;;;;;;;2.05;0.70;;;;;;;18.85;100.00;98411.69;1701721;82;21079;-51
2022/09/16 08:51:20;;;;;;;0.98;0.60;;;;;;;18.93;100.00;98411.75;1681273;83;21651;-51
2022/09/16 08:53:59;;;;;;;0.78;0.60;;;;;;;18.97;100.00;98410.94;1705093;83;21018;-51
2022/09/16 08:56:28;;;;;;;3.25;1.30;;;;;;;19.02;100.00;98419.48;1656475;84;20979;-51
2022/09/16 08:58:59;;;;;;;1.32;0.78;;;;;;;19.05;100.00;98427.36;1703757;82;21404;-51
2022/09/16 09:02:02;;;;;;;1.17;0.70;;;;;;;19.06;100.00;98426.31;1709843;82;21054;-51
2022/09/16 09:04:28;;;;;;;1.00;0.80;;;;;;;19.09;100.00;98415.09;1740776;81;21271;-51
2022/09/16 09:07:31;;;;;;;1.10;0.70;;;;;;;19.10;100.00;98416.81;1736071;81;21163;-50
2022/09/16 09:10:32;;;;;;;1.45;0.60;;;;;;;19.11;100.00;98418.53;1739129;80;21105;-50
2022/09/16 09:13:14;;;;;;;0.72;0.60;;;;;;;19.19;100.00;98424.03;1740262;81;21050;-50
2022/09/16 09:15:52;;;;;;;1.45;0.65;;;;;;;19.21;100.00;98423.37;1736794;81;21051;-51
2022/09/16 09:18:42;;;;;;;0.93;0.78;;;;;;;19.17;100.00;98426.92;1738903;80;22774;-51
2022/09/16 09:21:33;;;;;;;1.10;0.70;;;;;;;19.18;100.00;98428.63;1732142;80;21120;-50
2022/09/16 09:24:11;;;;;;;1.95;0.60;;;;;;;19.16;100.00;98429.30;1737040;80;21276;-50
2022/09/16 09:26:46;;;;;;;1.70;0.60;;;;;;;19.05;100.00;98433.67;1738804;80;21054;-50
2022/09/16 09:29:37;;;;;;;1.75;0.60;;;;;;;18.98;100.00;98431.70;1734749;81;21065;-51
2022/09/16 09:32:30;;;;;;;1.00;0.50;;;;;;;18.90;100.00;98425.18;1736732;81;21267;-50
2022/09/16 09:35:23;;;;;;;1.05;0.60;;;;;;;18.87;100.00;98417.34;1736258;81;21105;-50
2022/09/16 09:38:14;;;;;;;2.67;0.50;;;;;;;18.91;100.00;98423.31;1738202;81;21536;-50
2022/09/16 09:40:51;;;;;;;2.77;0.57;;;;;;;19.02;100.00;98420.34;1737714;81;21072;-51
2022/09/16 09:43:35;;;;;;;1.17;0.98;;;;;;;19.18;100.00;98423.17;1739599;80;21075;-50
2022/09/16 09:46:14;;;;;;;;;;;;;;;19.26;100.00;98420.50;1750858;80;21707;-50
2022/09/16 09:48:46;;;;;;;1.65;0.57;;;;;;;19.37;100.00;98422.11;1742160;80;20507;-50
2022/09/16 09:51:33;;;;;;;2.67;0.53;;;;;;;19.41;100.00;98430.30;1742375;80;21521;-50
2022/09/16 09:54:10;;;;;;;0.90;0.50;;;;;;;19.49;100.00;98434.98;1742599;80;21096;-50
2022/09/16 09:56:44;;;;;;;2.85;0.50;;;;;;;19.58;100.00;98426.68;1735064;80;21385;-50
2022/09/16 09:59:36;;;;;;;0.80;0.50;;;;;;;19.71;100.00;98434.95;1745213;80;21081;-49
2022/09/16 10:02:09;;;;;;;0.82;0.50;;;;;;;19.80;100.00;98442.16;1710297;82;20987;-50
2022/09/16 10:04:36;;;;;;;1.87;0.50;;;;;;;19.73;100.00;98445.20;1681885;83;20963;-49
2022/09/16 10:07:03;;;;;;;1.35;0.42;;;;;;;19.67;100.00;98447.19;1688596;83;21405;-48
2022/09/16 10:09:30;;;;;;;0.95;0.70;;;;;;;19.60;100.00;98437.44;1685685;84;21026;-48
2022/09/16 10:11:59;;;;;;;2.05;0.50;;;;;;;19.60;100.00;98435.57;1706575;82;21615;-49
2022/09/16 10:14:34;;;;;;;1.12;0.50;;;;;;;19.64;100.00;98438.34;1708955;82;20905;-49
2022/09/16 10:17:04;;;;;;;0.72;0.50;;;;;;;19.69;100.00;98434.25;1706368;82;21383;-49
2022/09/16 10:19:34;;;;;;;0.60;0.50;;;;;;;19.76;100.00;98438.03;1672308;83;21053;-51
2022/09/16 10:22:29;;;;;;;3.12;0.95;;;;;;;19.83;100.00;98451.37;1689850;83;21093;-49
2022/09/16 10:24:58;;;;;;;2.87;0.40;;;;;;;19.87;100.00;98442.70;1688463;83;21582;-49
2022/09/16 10:27:35;;;;;;;0.98;0.40;;;;;;;19.87;100.00;98454.13;1687795;83;20887;-49
2022/09/16 10:30:17;;;;;;;1.07;0.40;;;;;;;19.86;100.00;98456.52;1708910;82;20891;-49
2022/09/16 10:33:00;;;;;;;1.62;0.50;;;;;;;19.83;100.00;98455.46;1711851;82;20982;-49
2022/09/16 10:35:29;;;;;;;0.90;0.60;;;;;;;19.81;100.00;98458.89;1711294;82;20990;-49
2022/09/16 10:38:00;;;;;;;1.10;0.50;;;;;;;19.75;100.00;98467.71;1684782;84;22246;-48
2022/09/16 10:40:27;;;;;;;0.57;0.40;;;;;;;19.69;100.00;98467.00;1685228;84;21098;-49
2022/09/16 10:42:57;;;;;;;0.98;0.50;;;;;;;19.61;100.00;98463.72;1685769;83;21781;-49
2022/09/16 10:45:27;;;;;;;1.92;0.50;;;;;;;19.54;100.00;98459.94;1705595;82;21085;-49
2022/09/16 10:48:00;;;;;;;0.88;0.50;;;;;;;19.50;100.00;98459.89;1705304;82;21079;-49
2022/09/16 10:50:26;;;;;;;1.77;0.40;;;;;;;19.46;100.00;98459.86;1699349;82;21280;-49
2022/09/16 10:55:36;;;;;;;2.35;0.60;;;;;;;19.42;100.00;98451.63;1781393;78;28648;-52
2022/09/16 10:58:15;;;;;;;1.15;0.40;;;;;;;19.40;100.00;98450.92;1742750;79;21017;-50
2022/09/16 11:01:06;;;;;;;0.80;0.50;;;;;;;19.43;100.00;98450.11;1736090;79;21110;-50
2022/09/16 11:03:50;;;;;;;0.70;0.50;;;;;;;19.49;100.00;98460.91;1710689;79;21020;-49
2022/09/16 11:06:40;;;;;;;0.90;0.40;;;;;;;19.55;100.00;98443.91;1681303;83;26632;-50
2022/09/16 11:09:40;;;;;;;0.98;0.50;;;;;;;19.62;100.00;98450.42;1701454;82;21065;-49
2022/09/16 11:12:39;;;;;;;2.20;0.57;;;;;;;19.67;100.00;98449.92;1694384;82;21045;-50
2022/09/16 11:15:36;;;;;;;1.22;0.40;;;;;;;19.70;100.00;98452.34;1694341;82;21918;-50
2022/09/16 11:18:36;;;;;;;0.90;0.50;;;;;;;19.77;100.00;98457.48;1692856;82;21385;-49
2022/09/16 11:21:55;;;;;;;0.78;0.45;;;;;;;19.85;100.00;98457.02;1692999;82;20982;-49
2022/09/16 11:25:06;;;;;;;5.37;0.50;;;;;;;19.93;100.00;98454.83;1695525;82;21061;-50
2022/09/16 11:28:06;;;;;;;0.72;0.50;;;;;;;20.00;100.00;98461.34;1692675;82;21070;-49
2022/09/16 11:30:39;;;;;;;2.08;0.50;;;;;;;20.00;100.00;98447.69;1694324;82;21469;-49
2022/09/16 11:33:24;;;;;;;2.05;0.50;;;;;;;20.03;100.00;98451.47;1692774;82;21066;-49
2022/09/16 11:36:20;;;;;;;0.72;0.50;;;;;;;20.08;100.00;98444.98;1703353;82;21542;-49
2022/09/16 11:39:27;;;;;;;0.70;0.40;;;;;;;20.13;100.00;98449.97;1694075;82;21133;-49
2022/09/16 11:42:05;;;;;;;0.80;0.50;;;;;;;20.16;100.00;98451.02;1697274;82;21010;-49
2022/09/16 11:44:49;;;;;;;3.33;0.50;;;;;;;20.13;100.00;98454.92;1696614;82;22874;-49
2022/09/16 11:47:24;;;;;;;4.57;0.50;;;;;;;20.07;100.00;98455.59;1698950;82;21114;-49
2022/09/16 11:49:58;;;;;;;0.53;0.50;;;;;;;20.01;100.00;98461.19;1696100;82;21019;-50
2022/09/16 11:52:42;;;;;;;1.95;0.50;;;;;;;19.94;100.00;98455.18;1696721;82;21146;-49
2022/09/16 11:55:38;;;;;;;5.45;0.68;;;;;;;19.88;100.00;98466.77;1686506;82;21479;-48
2022/09/16 11:58:19;;;;;;;1.12;0.42;;;;;;;19.83;100.00;98464.52;1680791;82;21793;-49
2022/09/16 12:00:45;;;;;;;1.00;0.47;;;;;;;19.78;100.00;98464.16;1684424;82;21078;-48